< Cyclone 201007 2010 Season Cyclone 201011 >
Cyclone 201009 (Ului)
General InformationTrack Information on Google MapsDetailed Wind InformationList of All Images || ResourceGoogle EarthGE AnimationAtom FeedGeoJSON
Detalied Best Track (Time Zone = UTC)
Year Month Day Hour Lat. Long. Pressure (hPa) Wind (kt) Class Image Chart
2010 3 14 18 -12.8 160.0 939 105 5 Image --
2010 3 15 00 -12.8 159.5 939 105 5 Image --
2010 3 15 06 -12.9 159.0 939 105 5 Image --
2010 3 15 12 -13.0 158.7 945 100 5 Image --
2010 3 15 18 -13.1 158.4 948 95 5 Image --
2010 3 16 00 -13.2 158.1 943 100 5 Image --
2010 3 16 06 -13.3 158.0 937 105 5 Image --
2010 3 16 12 -13.4 158.0 943 100 5 Image --
2010 3 16 18 -13.6 158.0 941 100 5 Image --
2010 3 17 00 -13.7 158.0 944 100 5 Image --
2010 3 17 06 -13.9 158.0 950 95 5 Image --
2010 3 17 12 -14.2 158.0 960 85 5 Image --
2010 3 17 18 -14.6 157.9 958 85 5 Image --
2010 3 18 00 -14.8 157.8 962 80 5 Image --
2010 3 18 06 -15.0 157.7 967 75 5 Image --
2010 3 18 12 -15.4 157.5 976 65 5 Image --
2010 3 18 18 -16.1 157.3 982 55 4 Image --
2010 3 19 00 -16.5 156.6 986 55 4 Image --
2010 3 19 06 -17.3 156.1 983 55 4 Image --
2010 3 19 12 -17.9 155.6 986 55 4 Image --
2010 3 19 18 -18.7 154.3 985 55 4 Image --
2010 3 20 00 -19.5 152.9 983 55 4 Image --
2010 3 20 06 -19.8 151.3 978 65 5 Image --
2010 3 20 12 -19.9 149.8 967 80 5 Image --
2010 3 20 18 -20.3 148.1 982 60 4 Image --
2010 3 20 22 -20.6 146.8 1003 30 2 Image --
< Cyclone 201007 2010 Season Cyclone 201011 >

Help